Time;durP1;ratioP1;P1;durP2;ratioP2;P2;SDS_P1;SDS_P2;PMS_P1;PMS_P2;Temp;Humidity;BMP_temperature;BMP_pressure;BME280_temperature;BME280_humidity;BME280_pressure;Samples;Min_cycle;Max_cycle;Signal;HPM_P1;HPM_P2
2023/08/07 00:00:50;;;;;;;8.90;6.70;;;;;;;19.81;100.00;99477.48;110062;1239;67933;-69
2023/08/07 00:03:33;;;;;;;9.30;6.30;;;;;;;19.79;100.00;99475.25;109910;1238;73293;-70
2023/08/07 00:06:02;;;;;;;7.50;5.90;;;;;;;19.82;100.00;99474.48;110168;1239;63224;-70
2023/08/07 00:08:31;;;;;;;10.50;6.70;;;;;;;19.90;100.00;99469.45;110172;1237;60262;-70
2023/08/07 00:11:10;;;;;;;7.30;6.50;;;;;;;19.78;100.00;99469.52;110115;1237;73158;-70
2023/08/07 00:13:39;;;;;;;8.40;6.30;;;;;;;19.72;100.00;99472.95;110100;1239;61222;-70
2023/08/07 00:16:10;;;;;;;7.50;6.20;;;;;;;19.70;100.00;99473.15;110088;1239;59078;-70
2023/08/07 00:18:39;;;;;;;9.40;6.90;;;;;;;19.62;100.00;99468.88;110001;1241;73744;-69
2023/08/07 00:21:07;;;;;;;7.10;5.50;;;;;;;19.58;100.00;99472.89;110101;1239;63453;-70
2023/08/07 00:23:36;;;;;;;7.40;6.20;;;;;;;19.56;100.00;99484.52;110100;1239;57661;-70
2023/08/07 00:26:05;;;;;;;10.70;7.00;;;;;;;19.48;100.00;99488.99;110011;1239;63638;-70
2023/08/07 00:28:33;;;;;;;8.70;7.40;;;;;;;19.36;100.00;99487.19;110132;1238;71248;-70
2023/08/07 00:31:02;;;;;;;12.30;7.20;;;;;;;19.29;100.00;99477.48;110025;1237;59689;-70
2023/08/07 00:33:31;;;;;;;9.90;7.00;;;;;;;19.34;100.00;99483.37;110028;1237;63036;-70
2023/08/07 00:36:00;;;;;;;8.40;7.20;;;;;;;19.43;100.00;99486.31;110038;1238;62750;-71
2023/08/07 00:38:28;;;;;;;9.90;7.00;;;;;;;19.45;100.00;99491.49;109903;1237;61502;-70
2023/08/07 00:40:59;;;;;;;7.80;6.60;;;;;;;19.47;100.00;99490.77;110049;1241;63249;-71
2023/08/07 00:43:28;;;;;;;8.70;7.10;;;;;;;19.46;100.00;99488.98;109929;1242;61616;-70
2023/08/07 00:45:57;;;;;;;9.00;7.10;;;;;;;19.47;100.00;99480.87;110026;1238;69188;-71
2023/08/07 00:48:26;;;;;;;10.30;7.40;;;;;;;19.46;100.00;99476.55;109911;1239;74253;-71
2023/08/07 00:50:55;;;;;;;11.00;7.30;;;;;;;19.46;100.00;99477.60;110113;1239;62969;-71
2023/08/07 00:53:25;;;;;;;8.40;6.60;;;;;;;19.49;100.00;99473.17;110052;1241;57712;-70
2023/08/07 00:55:54;;;;;;;7.70;6.30;;;;;;;19.52;100.00;99472.09;110064;1238;74068;-70
2023/08/07 00:58:22;;;;;;;6.50;5.80;;;;;;;19.55;100.00;99474.17;110003;1237;64296;-70
2023/08/07 01:00:51;;;;;;;8.40;6.70;;;;;;;19.56;100.00;99478.25;109910;1242;59488;-70
2023/08/07 01:03:20;;;;;;;9.30;5.90;;;;;;;19.51;100.00;99478.02;110034;1238;62232;-70
2023/08/07 01:05:49;;;;;;;11.80;6.90;;;;;;;19.52;100.00;99475.23;110004;1241;62754;-71
2023/08/07 01:08:18;;;;;;;7.20;6.10;;;;;;;19.48;100.00;99475.21;109995;1237;61325;-70
2023/08/07 01:11:18;;;;;;;7.40;5.60;;;;;;;19.46;100.00;99480.90;110023;1237;74000;-70
2023/08/07 01:14:02;;;;;;;9.90;6.40;;;;;;;19.47;100.00;99486.41;110118;1239;61910;-69
2023/08/07 01:16:42;;;;;;;9.10;6.30;;;;;;;19.37;100.00;99486.70;110120;1238;69134;-69
2023/08/07 01:19:28;;;;;;;7.80;6.00;;;;;;;19.36;100.00;99479.92;109909;1242;72137;-70
2023/08/07 01:22:19;;;;;;;9.20;5.60;;;;;;;19.35;100.00;99482.16;109898;1242;58353;-69
2023/08/07 01:24:50;;;;;;;6.60;5.70;;;;;;;19.36;100.00;99474.92;109785;1238;60975;-71
2023/08/07 01:27:18;;;;;;;7.70;5.70;;;;;;;19.37;100.00;99469.95;109835;1237;74760;-70
2023/08/07 01:30:09;;;;;;;6.30;5.60;;;;;;;19.32;100.00;99462.52;110026;1238;61184;-71
2023/08/07 01:33:08;;;;;;;8.10;6.40;;;;;;;19.32;100.00;99479.79;110033;1237;60713;-69
2023/08/07 01:35:47;;;;;;;7.20;6.10;;;;;;;19.28;100.00;99484.98;110007;1237;64428;-70
2023/08/07 01:38:17;;;;;;;9.40;6.80;;;;;;;19.25;100.00;99483.34;110031;1239;57795;-70
2023/08/07 01:40:48;;;;;;;8.60;6.60;;;;;;;19.23;100.00;99482.11;110023;1239;58379;-69
2023/08/07 01:43:20;;;;;;;8.00;6.50;;;;;;;19.19;100.00;99480.42;109774;1238;74333;-69
2023/08/07 01:45:49;;;;;;;9.10;6.50;;;;;;;19.19;100.00;99482.95;109969;1238;72720;-69
2023/08/07 01:48:18;;;;;;;8.70;7.00;;;;;;;19.23;100.00;99484.39;110088;1239;59656;-70
2023/08/07 01:50:47;;;;;;;9.70;7.00;;;;;;;19.28;100.00;99483.95;110081;1238;73733;-69
2023/08/07 01:53:16;;;;;;;9.30;7.20;;;;;;;19.30;100.00;99491.68;109770;1241;63361;-70
2023/08/07 01:55:44;;;;;;;8.50;6.90;;;;;;;19.32;100.00;99496.27;109982;1238;60729;-70
2023/08/07 01:58:13;;;;;;;8.80;6.60;;;;;;;19.33;100.00;99497.26;109738;1241;63617;-70
2023/08/07 02:00:42;;;;;;;7.40;6.60;;;;;;;19.32;100.00;99498.96;110028;1238;61600;-71
2023/08/07 02:03:11;;;;;;;8.70;7.10;;;;;;;19.32;100.00;99497.51;109802;1241;59839;-71
2023/08/07 02:05:40;;;;;;;9.00;7.10;;;;;;;19.32;100.00;99500.20;109928;1239;74427;-70
2023/08/07 02:08:08;;;;;;;8.80;6.90;;;;;;;19.28;100.00;99493.46;109801;1238;63054;-71
2023/08/07 02:10:37;;;;;;;9.60;6.90;;;;;;;19.24;100.00;99492.54;109920;1239;58349;-70
2023/08/07 02:13:06;;;;;;;8.10;6.90;;;;;;;19.20;100.00;99494.67;109915;1237;72923;-70
2023/08/07 02:15:35;;;;;;;7.50;6.50;;;;;;;19.19;100.00;99500.16;109846;1238;70797;-70
2023/08/07 02:18:03;;;;;;;10.30;7.00;;;;;;;19.18;100.00;99500.77;109795;1237;69783;-71
2023/08/07 02:20:32;;;;;;;8.70;6.30;;;;;;;19.12;100.00;99498.79;109818;1238;64669;-70
2023/08/07 02:23:01;;;;;;;9.30;7.10;;;;;;;19.03;100.00;99502.08;109911;1239;62687;-70
2023/08/07 02:25:30;;;;;;;8.60;7.20;;;;;;;18.95;100.00;99501.17;109959;1239;58298;-70
2023/08/07 02:27:59;;;;;;;10.00;7.50;;;;;;;18.88;100.00;99508.33;109965;1237;74370;-70
2023/08/07 02:30:27;;;;;;;10.50;7.90;;;;;;;18.85;100.00;99515.71;109985;1238;72726;-70
2023/08/07 02:32:56;;;;;;;9.70;7.40;;;;;;;18.80;100.00;99523.30;109900;1242;60179;-70
2023/08/07 02:35:25;;;;;;;13.90;7.60;;;;;;;18.83;100.00;99528.33;109983;1238;63045;-70
2023/08/07 02:37:54;;;;;;;9.50;7.70;;;;;;;18.78;100.00;99526.79;110004;1238;62116;-70
2023/08/07 02:40:22;;;;;;;8.90;7.30;;;;;;;18.78;100.00;99531.72;109978;1238;60555;-70
2023/08/07 02:42:51;;;;;;;10.90;7.90;;;;;;;18.81;100.00;99535.85;110139;1239;64333;-69
2023/08/07 02:45:20;;;;;;;11.10;7.80;;;;;;;18.81;100.00;99533.15;110118;1239;61462;-70
2023/08/07 02:47:49;;;;;;;9.90;7.70;;;;;;;18.82;100.00;99536.25;110110;1238;69490;-69
2023/08/07 02:50:17;;;;;;;9.90;7.30;;;;;;;18.87;100.00;99544.27;110057;1237;73072;-70
2023/08/07 02:52:46;;;;;;;9.50;8.00;;;;;;;18.88;100.00;99544.96;109977;1241;57815;-71
2023/08/07 02:55:15;;;;;;;12.40;7.80;;;;;;;18.91;100.00;99552.39;110103;1238;58296;-71
2023/08/07 02:57:44;;;;;;;9.00;7.40;;;;;;;19.02;100.00;99558.17;109995;1238;73486;-70
2023/08/07 03:00:13;;;;;;;8.80;7.20;;;;;;;19.07;100.00;99560.65;109913;1241;70593;-72
2023/08/07 03:02:42;;;;;;;10.00;7.80;;;;;;;19.13;100.00;99565.30;110139;1238;70662;-70
2023/08/07 03:05:11;;;;;;;12.40;7.60;;;;;;;19.20;100.00;99563.51;110021;1238;72836;-71
2023/08/07 03:07:39;;;;;;;9.90;7.30;;;;;;;19.28;100.00;99564.08;110008;1241;63215;-70
2023/08/07 03:10:08;;;;;;;10.60;7.50;;;;;;;19.33;100.00;99566.67;110211;1237;58352;-70
2023/08/07 03:12:38;;;;;;;10.30;8.20;;;;;;;19.33;100.00;99567.16;110143;1238;63015;-70
2023/08/07 03:15:07;;;;;;;11.90;7.60;;;;;;;19.34;100.00;99572.22;110049;1236;72004;-71
2023/08/07 03:17:36;;;;;;;10.60;7.40;;;;;;;19.38;100.00;99575.17;110107;1237;71005;-70
2023/08/07 03:20:05;;;;;;;8.40;7.10;;;;;;;19.41;100.00;99580.09;110119;1238;73884;-70
2023/08/07 03:22:34;;;;;;;8.10;6.60;;;;;;;19.43;100.00;99578.06;109881;1237;58328;-71
2023/08/07 03:25:03;;;;;;;9.70;5.90;;;;;;;19.49;100.00;99580.98;109994;1237;61171;-70
2023/08/07 03:27:32;;;;;;;9.30;6.90;;;;;;;19.52;100.00;99586.95;109833;1237;63692;-71
2023/08/07 03:30:01;;;;;;;8.60;6.30;;;;;;;19.48;100.00;99592.14;110216;1238;71951;-70
2023/08/07 03:32:30;;;;;;;8.70;6.70;;;;;;;19.55;100.00;99593.09;110024;1238;70803;-69
2023/08/07 03:34:58;;;;;;;10.90;6.60;;;;;;;19.47;100.00;99592.83;109994;1241;73849;-70
2023/08/07 03:37:27;;;;;;;10.90;6.80;;;;;;;19.39;100.00;99593.19;109996;1238;63259;-70
2023/08/07 03:39:56;;;;;;;8.10;6.90;;;;;;;19.39;100.00;99589.96;110101;1238;58181;-70
2023/08/07 03:42:25;;;;;;;9.60;6.80;;;;;;;19.42;100.00;99593.64;109914;1237;62726;-70
2023/08/07 03:44:55;;;;;;;11.00;7.40;;;;;;;19.48;100.00;99595.28;109994;1239;72048;-70
2023/08/07 03:47:24;;;;;;;8.20;7.30;;;;;;;19.53;100.00;99593.36;110025;1238;59885;-70
2023/08/07 03:49:53;;;;;;;9.50;6.70;;;;;;;19.57;100.00;99595.83;110017;1237;63234;-69
2023/08/07 03:52:22;;;;;;;9.40;6.80;;;;;;;19.61;100.00;99597.33;109980;1240;57860;-70
2023/08/07 03:54:51;;;;;;;9.70;6.40;;;;;;;19.67;100.00;99600.79;109996;1237;58828;-69
2023/08/07 03:57:19;;;;;;;7.80;6.70;;;;;;;19.73;100.00;99601.49;109973;1238;74319;-69
2023/08/07 03:59:50;;;;;;;10.20;6.60;;;;;;;19.80;100.00;99603.33;109995;1238;72916;-69
2023/08/07 04:02:18;;;;;;;10.70;6.90;;;;;;;19.88;100.00;99610.35;110013;1237;61460;-69
2023/08/07 04:04:47;;;;;;;13.80;6.60;;;;;;;19.94;100.00;99607.27;109975;1238;63272;-70
2023/08/07 04:07:16;;;;;;;8.60;6.10;;;;;;;19.98;100.00;99610.58;109999;1239;57773;-71
2023/08/07 04:09:45;;;;;;;7.90;6.60;;;;;;;20.02;100.00;99608.86;110009;1238;61772;-70
2023/08/07 04:12:13;;;;;;;7.40;6.50;;;;;;;19.98;100.00;99618.34;110046;1238;73998;-69
2023/08/07 04:14:42;;;;;;;8.10;6.40;;;;;;;19.97;100.00;99621.51;110056;1238;62185;-69
2023/08/07 04:17:11;;;;;;;9.70;7.10;;;;;;;19.97;100.00;99628.05;110170;1238;70192;-71
2023/08/07 04:19:40;;;;;;;8.90;6.40;;;;;;;19.98;100.00;99626.12;110069;1237;75049;-70
2023/08/07 04:22:08;;;;;;;9.60;7.00;;;;;;;20.06;100.00;99627.09;110022;1238;63108;-70
2023/08/07 04:24:37;;;;;;;11.60;7.40;;;;;;;20.05;100.00;99632.95;110086;1237;58302;-70
2023/08/07 04:27:08;;;;;;;11.70;7.00;;;;;;;20.02;100.00;99639.59;110097;1238;74261;-70
2023/08/07 04:29:36;;;;;;;10.10;6.40;;;;;;;20.11;100.00;99643.38;110030;1237;73137;-71
2023/08/07 04:32:06;;;;;;;7.80;6.80;;;;;;;20.11;100.00;99645.02;110044;1237;59477;-71
2023/08/07 04:34:35;;;;;;;7.40;6.60;;;;;;;20.11;100.00;99643.05;109901;1237;62306;-71
2023/08/07 04:37:05;;;;;;;9.00;7.10;;;;;;;20.11;100.00;99644.77;110096;1239;62668;-71
2023/08/07 04:39:33;;;;;;;7.80;6.50;;;;;;;20.12;100.00;99649.13;110106;1237;61327;-71
2023/08/07 04:42:03;;;;;;;9.90;7.20;;;;;;;20.09;100.00;99646.67;110125;1237;64309;-70
2023/08/07 04:44:31;;;;;;;7.90;7.00;;;;;;;20.04;100.00;99650.09;110092;1237;71966;-70
2023/08/07 04:47:00;;;;;;;8.30;6.80;;;;;;;20.08;100.00;99650.26;110032;1237;60466;-70
2023/08/07 04:49:29;;;;;;;8.10;5.90;;;;;;;20.08;100.00;99654.83;110075;1237;71792;-71
2023/08/07 04:51:58;;;;;;;8.80;6.70;;;;;;;20.11;100.00;99657.33;110075;1239;63325;-70
2023/08/07 04:54:34;;;;;;;10.70;6.40;;;;;;;20.09;100.00;99655.90;110000;1237;57868;-70
2023/08/07 04:57:03;;;;;;;7.30;5.20;;;;;;;20.14;100.00;99659.05;109874;1238;63420;-70
2023/08/07 04:59:32;;;;;;;6.40;4.30;;;;;;;20.16;100.00;99659.83;109969;1237;61617;-70
2023/08/07 05:02:01;;;;;;;7.80;5.30;;;;;;;20.22;100.00;99660.46;109999;1238;70376;-70
2023/08/07 05:04:30;;;;;;;7.80;5.00;;;;;;;20.23;100.00;99660.75;109854;1237;73908;-70
2023/08/07 05:06:58;;;;;;;8.80;4.20;;;;;;;20.31;100.00;99658.70;109900;1239;63228;-70
2023/08/07 05:09:27;;;;;;;10.00;4.50;;;;;;;20.36;100.00;99659.73;109965;1237;58280;-70
2023/08/07 05:11:56;;;;;;;6.40;4.40;;;;;;;20.28;100.00;99663.63;110025;1238;72648;-70
2023/08/07 05:14:25;;;;;;;5.90;4.20;;;;;;;20.31;100.00;99662.34;110030;1237;61486;-70
2023/08/07 05:16:54;;;;;;;7.40;4.10;;;;;;;20.29;100.00;99663.44;109881;1237;59759;-69
2023/08/07 05:19:23;;;;;;;5.60;3.60;;;;;;;20.33;100.00;99665.45;110087;1238;73692;-70
2023/08/07 05:21:51;;;;;;;5.90;3.90;;;;;;;20.33;100.00;99667.94;110054;1239;63012;-70
2023/08/07 05:24:20;;;;;;;5.20;3.80;;;;;;;20.34;100.00;99667.90;110071;1237;57733;-70
2023/08/07 05:26:49;;;;;;;7.50;3.80;;;;;;;20.31;100.00;99666.91;110099;1239;62719;-69
2023/08/07 05:29:18;;;;;;;6.80;3.70;;;;;;;20.25;100.00;99667.86;110101;1237;71967;-71
2023/08/07 05:31:46;;;;;;;6.00;3.70;;;;;;;20.26;100.00;99668.27;110076;1237;70644;-71
2023/08/07 05:34:15;;;;;;;5.40;3.50;;;;;;;20.21;100.00;99667.84;110158;1238;63508;-72
2023/08/07 05:36:44;;;;;;;5.80;3.10;;;;;;;20.12;100.00;99670.67;110109;1238;61876;-70
2023/08/07 05:39:13;;;;;;;4.70;3.30;;;;;;;20.17;100.00;99676.40;110126;1237;60355;-70
2023/08/07 05:41:42;;;;;;;4.80;3.10;;;;;;;20.15;100.00;99677.98;110100;1237;74844;-70
2023/08/07 05:44:10;;;;;;;4.80;2.90;;;;;;;20.11;100.00;99673.36;109991;1238;71626;-71
2023/08/07 05:46:39;;;;;;;5.50;2.80;;;;;;;20.18;100.00;99671.59;110128;1237;60393;-70
2023/08/07 05:49:08;;;;;;;4.00;2.50;;;;;;;20.14;100.00;99673.52;110077;1237;62421;-70
2023/08/07 05:51:37;;;;;;;5.60;2.90;;;;;;;20.08;100.00;99670.60;110071;1239;62949;-70
2023/08/07 05:54:05;;;;;;;3.40;2.50;;;;;;;19.99;100.00;99675.17;110078;1237;61370;-71
2023/08/07 05:56:34;;;;;;;4.10;3.10;;;;;;;19.79;100.00;99676.70;110069;1237;64327;-70
2023/08/07 05:59:03;;;;;;;6.40;2.70;;;;;;;19.65;100.00;99679.48;109877;1239;61421;-70
2023/08/07 06:01:32;;;;;;;4.00;2.60;;;;;;;19.61;100.00;99686.90;110094;1238;59966;-70
2023/08/07 06:04:01;;;;;;;4.30;2.70;;;;;;;19.58;100.00;99688.86;110095;1238;72668;-70
2023/08/07 06:06:30;;;;;;;6.20;3.20;;;;;;;19.56;100.00;99692.89;110072;1238;58331;-70
2023/08/07 06:08:58;;;;;;;4.20;2.80;;;;;;;19.64;100.00;99688.27;110085;1238;58207;-70
2023/08/07 06:11:28;;;;;;;4.10;2.70;;;;;;;19.69;100.00;99691.77;110081;1238;64250;-69
2023/08/07 06:13:58;;;;;;;4.80;3.20;;;;;;;19.76;100.00;99701.06;110112;1237;71186;-69
2023/08/07 06:16:27;;;;;;;8.80;2.60;;;;;;;19.83;100.00;99702.05;109982;1237;61971;-70
2023/08/07 06:18:56;;;;;;;3.60;2.50;;;;;;;19.84;100.00;99706.05;109892;1241;74255;-70
2023/08/07 06:21:24;;;;;;;4.90;2.10;;;;;;;19.77;100.00;99715.25;110103;1239;63117;-70
2023/08/07 06:23:53;;;;;;;4.90;2.80;;;;;;;19.90;100.00;99719.77;110014;1239;58322;-70
2023/08/07 06:26:22;;;;;;;3.00;2.00;;;;;;;20.02;100.00;99721.89;110116;1238;73274;-70
2023/08/07 06:28:50;;;;;;;3.90;1.50;;;;;;;20.08;100.00;99730.55;110117;1237;71767;-70
2023/08/07 06:31:19;;;;;;;4.80;1.70;;;;;;;20.15;100.00;99729.74;110018;1237;60256;-71
2023/08/07 06:33:49;;;;;;;3.10;1.60;;;;;;;20.28;100.00;99726.91;110141;1239;62786;-71
2023/08/07 06:36:18;;;;;;;4.90;1.60;;;;;;;20.33;100.00;99725.66;110116;1239;57773;-72
2023/08/07 06:38:47;;;;;;;3.50;1.30;;;;;;;20.41;100.00;99725.70;110142;1237;57701;-69
2023/08/07 06:41:15;;;;;;;2.90;1.00;;;;;;;20.48;100.00;99728.56;110138;1237;73571;-70
2023/08/07 06:43:45;;;;;;;4.20;1.00;;;;;;;20.54;100.00;99733.81;110051;1237;62184;-72
2023/08/07 06:46:13;;;;;;;1.70;1.10;;;;;;;20.48;100.00;99740.52;110157;1237;70179;-69
2023/08/07 06:48:42;;;;;;;2.60;1.20;;;;;;;20.52;100.00;99742.26;110021;1238;74190;-69
2023/08/07 06:51:11;;;;;;;4.10;1.10;;;;;;;20.53;100.00;99744.09;110096;1239;57814;-70
2023/08/07 06:53:40;;;;;;;2.20;0.90;;;;;;;20.57;100.00;99745.58;110122;1238;57726;-70
2023/08/07 06:56:09;;;;;;;2.70;1.10;;;;;;;20.66;100.00;99749.73;110064;1238;73624;-70
2023/08/07 06:58:37;;;;;;;3.50;0.90;;;;;;;20.69;100.00;99750.96;110090;1237;72475;-70
2023/08/07 07:01:06;;;;;;;0.90;0.80;;;;;;;20.74;100.00;99753.17;110115;1239;60312;-70
2023/08/07 07:03:35;;;;;;;2.50;0.80;;;;;;;20.68;100.00;99751.16;110027;1238;73789;-70
2023/08/07 07:06:05;;;;;;;4.10;0.90;;;;;;;20.76;100.00;99757.06;110109;1239;63488;-70
2023/08/07 07:08:33;;;;;;;1.90;0.70;;;;;;;20.93;100.00;99760.08;110108;1237;60545;-70
2023/08/07 07:11:04;;;;;;;2.40;0.80;;;;;;;21.00;100.00;99765.48;110121;1239;64096;-69
2023/08/07 07:13:32;;;;;;;1.70;0.80;;;;;;;21.03;100.00;99768.44;109981;1237;72181;-70
2023/08/07 07:16:02;;;;;;;3.20;0.90;;;;;;;21.20;100.00;99772.76;109775;1237;60320;-69
2023/08/07 07:18:31;;;;;;;1.70;0.90;;;;;;;21.38;100.00;99771.85;110012;1237;73170;-70
2023/08/07 07:21:00;;;;;;;1.10;0.70;;;;;;;21.55;100.00;99778.94;110064;1239;62193;-70
2023/08/07 07:23:29;;;;;;;1.20;0.50;;;;;;;21.72;100.00;99780.82;110021;1238;57837;-70
2023/08/07 07:25:57;;;;;;;1.20;0.80;;;;;;;21.70;100.00;99788.63;110072;1237;74316;-69
2023/08/07 07:28:27;;;;;;;1.60;0.80;;;;;;;21.75;100.00;99787.76;109971;1237;63096;-70
2023/08/07 07:30:56;;;;;;;1.60;0.80;;;;;;;21.83;100.00;99791.10;109993;1238;58980;-69
2023/08/07 07:33:25;;;;;;;1.50;0.90;;;;;;;21.98;100.00;99786.27;110067;1239;63043;-69
2023/08/07 07:35:54;;;;;;;2.10;0.70;;;;;;;22.14;100.00;99790.30;109986;1239;59881;-69
2023/08/07 07:38:22;;;;;;;0.60;0.60;;;;;;;22.30;100.00;99789.05;109985;1238;61469;-72
2023/08/07 07:40:56;;;;;;;2.30;0.50;;;;;;;22.46;100.00;99795.34;110118;1239;64442;-69
2023/08/07 07:43:25;;;;;;;1.90;0.80;;;;;;;22.71;100.00;99800.60;110132;1239;71926;-70
2023/08/07 07:45:53;;;;;;;3.40;0.40;;;;;;;22.83;98.99;99808.86;110112;1238;70583;-70
2023/08/07 07:48:22;;;;;;;1.20;0.60;;;;;;;22.92;97.23;99808.39;110103;1238;74115;-71
2023/08/07 07:50:53;;;;;;;0.80;0.50;;;;;;;23.01;95.79;99813.50;110095;1239;58309;-70
2023/08/07 07:53:22;;;;;;;1.80;0.60;;;;;;;23.20;92.68;99818.84;110124;1238;60141;-70
2023/08/07 07:55:53;;;;;;;0.60;0.40;;;;;;;23.44;91.47;99822.63;110114;1239;64421;-70
2023/08/07 07:58:24;;;;;;;1.00;0.50;;;;;;;23.65;83.92;99828.30;110042;1238;60915;-70
2023/08/07 08:00:53;;;;;;;2.00;0.60;;;;;;;23.68;82.14;99825.24;110093;1238;60298;-70
2023/08/07 08:03:25;;;;;;;0.90;0.50;;;;;;;23.86;81.74;99826.86;110106;1238;63723;-70
2023/08/07 08:05:55;;;;;;;0.60;0.40;;;;;;;23.96;79.69;99834.85;110106;1238;58267;-70
2023/08/07 08:08:24;;;;;;;1.70;0.70;;;;;;;24.08;78.54;99837.70;110017;1237;60718;-73
2023/08/07 08:10:56;;;;;;;1.50;0.60;;;;;;;24.24;75.17;99830.14;110052;1237;74814;-71
2023/08/07 08:13:25;;;;;;;0.40;0.30;;;;;;;24.24;75.15;99837.83;109900;1238;72665;-72
2023/08/07 08:15:54;;;;;;;1.30;0.70;;;;;;;24.23;74.82;99835.81;110142;1239;60544;-71
2023/08/07 08:18:22;;;;;;;1.60;0.50;;;;;;;24.35;73.93;99839.61;110134;1238;73589;-70
2023/08/07 08:20:51;;;;;;;4.80;0.60;;;;;;;24.39;73.97;99840.97;110125;1239;57808;-69
2023/08/07 08:23:20;;;;;;;0.50;0.30;;;;;;;24.48;72.78;99844.48;110141;1239;57724;-70
2023/08/07 08:25:49;;;;;;;1.00;0.50;;;;;;;24.57;71.76;99847.84;110083;1237;63770;-71
2023/08/07 08:28:18;;;;;;;0.80;0.40;;;;;;;24.79;71.81;99851.40;109875;1237;72207;-70
2023/08/07 08:30:48;;;;;;;2.80;0.50;;;;;;;24.93;70.58;99854.34;110019;1238;70777;-71
2023/08/07 08:33:17;;;;;;;2.30;0.70;;;;;;;25.16;70.35;99848.76;110004;1238;73268;-71
2023/08/07 08:35:46;;;;;;;0.70;0.40;;;;;;;25.42;67.36;99841.11;110078;1239;57776;-71
2023/08/07 08:38:16;;;;;;;2.10;0.70;;;;;;;25.30;67.24;99841.38;110069;1239;60975;-70
2023/08/07 08:40:51;;;;;;;0.80;0.40;;;;;;;25.27;67.13;99846.48;110069;1237;73937;-70
2023/08/07 08:43:20;;;;;;;0.90;0.40;;;;;;;25.20;66.86;99843.46;110096;1237;71222;-70
2023/08/07 08:45:49;;;;;;;1.20;0.40;;;;;;;25.03;66.99;99843.41;109871;1242;60311;-70
2023/08/07 08:48:23;;;;;;;1.10;0.50;;;;;;;24.88;68.39;99846.44;109992;1241;62301;-70
2023/08/07 08:50:52;;;;;;;1.80;0.30;;;;;;;24.88;67.39;99849.51;110110;1238;58317;-70
2023/08/07 08:53:22;;;;;;;1.30;0.60;;;;;;;24.85;67.56;99847.17;110032;1238;57782;-71
2023/08/07 08:55:52;;;;;;;2.00;0.40;;;;;;;24.79;67.74;99853.91;109974;1238;73592;-71
2023/08/07 08:58:21;;;;;;;0.70;0.40;;;;;;;24.81;67.27;99845.46;109995;1238;62764;-70
2023/08/07 09:00:50;;;;;;;1.10;0.30;;;;;;;24.80;67.11;99840.43;110131;1238;60129;-71
2023/08/07 09:03:19;;;;;;;0.30;0.20;;;;;;;24.73;65.91;99857.31;110006;1238;63293;-71
2023/08/07 09:05:49;;;;;;;1.30;0.40;;;;;;;24.84;65.97;99862.89;110036;1240;60404;-71
2023/08/07 09:08:18;;;;;;;0.80;0.30;;;;;;;25.01;64.94;99864.86;110103;1238;57786;-71
2023/08/07 09:10:48;;;;;;;0.20;0.20;;;;;;;24.91;65.21;99869.58;109750;1238;385642;-70
2023/08/07 09:13:20;;;;;;;0.40;0.40;;;;;;;24.95;65.88;99870.55;110083;1240;71909;-71
2023/08/07 09:15:51;;;;;;;0.40;0.30;;;;;;;25.12;64.49;99880.40;110079;1237;60277;-71
2023/08/07 09:18:20;;;;;;;0.10;0.10;;;;;;;25.08;65.26;99880.13;109921;1238;63126;-71
2023/08/07 09:20:49;;;;;;;0.60;0.30;;;;;;;25.20;64.09;99882.96;110054;1239;61199;-71
2023/08/07 09:23:18;;;;;;;0.70;0.30;;;;;;;25.30;64.10;99882.21;110134;1238;57801;-70
2023/08/07 09:26:08;;;;;;;2.10;0.50;;;;;;;25.43;64.82;99878.31;110136;1239;74140;-70
2023/08/07 09:28:37;;;;;;;1.00;0.30;;;;;;;25.57;63.54;99878.96;110039;1239;62698;-71
2023/08/07 09:31:14;;;;;;;0.30;0.30;;;;;;;25.60;64.19;99878.43;110107;1238;69999;-71
2023/08/07 09:33:50;;;;;;;1.70;0.50;;;;;;;25.85;63.84;99868.75;110072;1237;64133;-71
2023/08/07 09:36:19;;;;;;;0.50;0.20;;;;;;;26.19;62.67;99873.09;109990;1240;58389;-70
2023/08/07 09:38:51;;;;;;;0.90;0.40;;;;;;;26.11;61.92;99886.65;110073;1238;58208;-71
2023/08/07 09:41:20;;;;;;;1.00;0.70;;;;;;;26.10;61.14;99891.28;110098;1239;73521;-70
2023/08/07 09:43:49;;;;;;;0.60;0.30;;;;;;;26.09;61.67;99894.27;109953;1241;72078;-71
2023/08/07 09:46:17;;;;;;;1.00;0.40;;;;;;;26.05;62.01;99894.59;109975;1238;70012;-70
2023/08/07 09:48:48;;;;;;;2.10;0.80;;;;;;;26.03;62.15;99896.16;109977;1238;63238;-70
2023/08/07 09:51:17;;;;;;;1.10;0.70;;;;;;;26.09;62.96;99899.94;109997;1239;61034;-71
2023/08/07 09:53:47;;;;;;;1.10;0.60;;;;;;;26.29;61.81;99901.98;109975;1238;60741;-71
2023/08/07 09:56:17;;;;;;;0.40;0.20;;;;;;;26.43;60.17;99905.46;109996;1237;65057;-70
2023/08/07 09:58:49;;;;;;;0.70;0.50;;;;;;;26.84;58.23;99906.32;109993;1239;72103;-70
2023/08/07 10:01:18;;;;;;;5.60;0.60;;;;;;;27.06;57.92;99912.40;109949;1237;61174;-70
2023/08/07 10:03:47;;;;;;;2.10;0.20;;;;;;;26.96;57.46;99917.35;110133;1237;62127;-71
2023/08/07 10:06:19;;;;;;;0.30;0.10;;;;;;;27.09;56.78;99923.89;110086;1239;58236;-72
2023/08/07 10:08:48;;;;;;;0.40;0.20;;;;;;;27.20;55.29;99908.09;109996;1237;58313;-71
2023/08/07 10:11:17;;;;;;;0.50;0.20;;;;;;;27.16;55.87;99916.48;109989;1237;64095;-72
2023/08/07 10:13:46;;;;;;;0.60;0.50;;;;;;;26.96;56.17;99922.66;109971;1239;63204;-72
2023/08/07 10:16:15;;;;;;;1.10;0.50;;;;;;;26.78;56.30;99931.55;109904;1237;59763;-70
2023/08/07 10:18:44;;;;;;;0.50;0.30;;;;;;;26.53;57.40;99934.91;110019;1237;62392;-70
2023/08/07 10:21:13;;;;;;;2.20;0.20;;;;;;;26.38;57.07;99939.65;110072;1239;58321;-71
2023/08/07 10:23:43;;;;;;;0.80;0.30;;;;;;;26.19;57.71;99937.38;110106;1239;60307;-71
2023/08/07 10:26:12;;;;;;;1.00;0.50;;;;;;;26.18;58.83;99932.48;110001;1238;65183;-71
2023/08/07 10:28:43;;;;;;;0.20;0.20;;;;;;;26.54;58.99;99934.59;109851;1238;63231;-71
2023/08/07 10:31:13;;;;;;;0.20;0.10;;;;;;;26.95;58.81;99931.05;109957;1238;70215;-71
2023/08/07 10:33:42;;;;;;;1.00;0.50;;;;;;;27.21;57.86;99932.55;109929;1237;65358;-71
2023/08/07 10:36:12;;;;;;;0.20;0.20;;;;;;;27.68;54.37;99942.70;109945;1238;58303;-70
2023/08/07 10:38:41;;;;;;;0.40;0.30;;;;;;;27.69;53.79;99938.88;109928;1238;61239;-71
2023/08/07 10:41:14;;;;;;;0.50;0.30;;;;;;;27.78;53.78;99933.66;109859;1237;65299;-71
2023/08/07 10:43:45;;;;;;;1.70;0.60;;;;;;;27.94;53.31;99941.29;109838;1237;72135;-71
2023/08/07 10:46:23;;;;;;;0.50;0.20;;;;;;;27.91;53.35;99945.42;109831;1238;70137;-71
2023/08/07 10:48:59;;;;;;;1.10;0.20;;;;;;;27.71;52.89;99946.12;109904;1237;72931;-71
2023/08/07 10:51:32;;;;;;;0.30;0.20;;;;;;;27.55;53.40;99948.52;109935;1239;57781;-71
2023/08/07 10:54:01;;;;;;;0.60;0.40;;;;;;;27.33;54.38;99957.06;109933;1237;59193;-71
2023/08/07 10:56:40;;;;;;;0.20;0.20;;;;;;;27.43;54.36;99953.55;109927;1238;64128;-71
2023/08/07 10:59:12;;;;;;;1.60;0.20;;;;;;;27.56;53.40;99956.06;109956;1237;61499;-71
2023/08/07 11:01:43;;;;;;;1.30;0.40;;;;;;;27.23;54.58;99954.88;109852;1237;69226;-70
2023/08/07 11:04:14;;;;;;;0.60;0.30;;;;;;;27.16;54.98;99962.27;109904;1239;64695;-71
2023/08/07 11:06:48;;;;;;;1.00;0.30;;;;;;;27.25;55.35;99968.98;109850;1238;58358;-71
2023/08/07 11:09:17;;;;;;;0.20;0.20;;;;;;;27.23;55.06;99986.69;109948;1237;57742;-71
2023/08/07 11:11:48;;;;;;;1.00;0.60;;;;;;;27.38;54.55;99977.70;109899;1237;63605;-71
2023/08/07 11:14:19;;;;;;;0.60;0.40;;;;;;;27.48;53.58;99972.54;109985;1237;61523;-71
2023/08/07 11:16:52;;;;;;;0.30;0.20;;;;;;;27.35;54.41;99979.63;109946;1237;69700;-70
2023/08/07 11:19:22;;;;;;;0.20;0.10;;;;;;;27.08;55.37;99985.72;109838;1237;63004;-71
2023/08/07 11:21:54;;;;;;;0.30;0.30;;;;;;;26.98;56.64;99989.59;109860;1240;57769;-71
2023/08/07 11:24:23;;;;;;;0.80;0.30;;;;;;;27.48;55.12;99984.88;109965;1237;59311;-70
2023/08/07 11:26:52;;;;;;;0.40;0.30;;;;;;;27.67;55.28;99989.38;109976;1237;73850;-70
2023/08/07 11:29:24;;;;;;;1.50;0.30;;;;;;;28.06;53.19;99993.72;109962;1237;62014;-70
2023/08/07 11:31:53;;;;;;;3.90;0.40;;;;;;;28.35;51.70;99992.27;109979;1237;59336;-71